createdAt,value
2022-11-04T00:00:53.643Z,98101.75
2022-11-04T00:03:20.031Z,98102.97
2022-11-04T00:05:46.690Z,98116.31
2022-11-04T00:08:13.126Z,98120.63
2022-11-04T00:10:39.449Z,98112.41
2022-11-04T00:13:06.324Z,98100.13
2022-11-04T00:15:36.917Z,98094.97
2022-11-04T00:18:03.536Z,98087.00
2022-11-04T00:20:29.943Z,98098.69
2022-11-04T00:22:56.338Z,98092.31
2022-11-04T00:25:23.284Z,98094.56
2022-11-04T00:27:49.731Z,98090.28
2022-11-04T00:30:16.284Z,98077.38
2022-11-04T00:32:42.630Z,98074.69
2022-11-04T00:35:10.356Z,98072.84
2022-11-04T00:37:41.661Z,98065.66
2022-11-04T00:40:09.720Z,98066.50
2022-11-04T00:42:36.135Z,98066.28
2022-11-04T00:45:02.898Z,98067.09
2022-11-04T00:47:29.403Z,98070.81
2022-11-04T00:49:55.815Z,98071.44
2022-11-04T00:52:22.448Z,98076.94
2022-11-04T00:54:48.956Z,98078.81
2022-11-04T00:57:16.047Z,98080.25
2022-11-04T00:59:42.613Z,98082.50
2022-11-04T01:02:10.609Z,98087.44
2022-11-04T01:04:37.309Z,98080.25
2022-11-04T01:07:03.726Z,98077.16
2022-11-04T01:09:30.394Z,98080.25
2022-11-04T01:11:56.846Z,98083.09
2022-11-04T01:14:23.655Z,98077.19
2022-11-04T01:16:50.829Z,98077.38
2022-11-04T01:19:18.105Z,98082.28
2022-11-04T01:21:44.597Z,98086.81
2022-11-04T01:24:11.024Z,98106.69
2022-11-04T01:26:37.849Z,98109.34
2022-11-04T01:29:04.285Z,98113.63
2022-11-04T01:31:31.668Z,98103.59
2022-11-04T01:33:59.118Z,98103.59
2022-11-04T01:36:26.842Z,98104.41
2022-11-04T01:38:55.492Z,98102.78
2022-11-04T01:41:27.350Z,98097.47
2022-11-04T01:44:02.148Z,98097.06
2022-11-04T01:46:31.867Z,98099.91
2022-11-04T01:49:06.700Z,98098.69
2022-11-04T01:51:36.684Z,98090.06
2022-11-04T01:54:06.607Z,98097.47
2022-11-04T01:56:33.285Z,98085.38
2022-11-04T01:59:06.107Z,98083.94
2022-11-04T02:01:32.922Z,98087.41
2022-11-04T02:04:00.945Z,98089.88
2022-11-04T02:06:27.526Z,98087.63
2022-11-04T02:08:53.934Z,98079.00
2022-11-04T02:11:20.586Z,98071.03
2022-11-04T02:13:47.223Z,98076.56
2022-11-04T02:16:19.391Z,98064.69
2022-11-04T02:18:57.953Z,98072.66
2022-11-04T02:21:37.714Z,98078.19
2022-11-04T02:24:22.744Z,98076.34
2022-11-04T02:27:26.841Z,98081.69
2022-11-04T02:30:16.203Z,98083.13
2022-11-04T02:33:01.235Z,98083.13
2022-11-04T02:35:27.554Z,98082.50
2022-11-04T02:38:15.709Z,98087.19
2022-11-04T02:41:02.270Z,98088.41
2022-11-04T02:44:06.280Z,98083.53
2022-11-04T02:46:40.472Z,98079.00
2022-11-04T02:49:40.957Z,98091.47
2022-11-04T02:52:11.323Z,98085.97
2022-11-04T02:54:51.853Z,98086.34
2022-11-04T02:57:32.339Z,98083.69
2022-11-04T03:00:05.712Z,98081.00
2022-11-04T03:02:42.496Z,98071.38
2022-11-04T03:05:16.760Z,98069.75
2022-11-04T03:07:45.888Z,98077.53
2022-11-04T03:10:25.930Z,98068.09
2022-11-04T03:13:00.521Z,98074.44
2022-11-04T03:15:34.305Z,98079.16
2022-11-04T03:18:18.919Z,98077.72
2022-11-04T03:20:48.478Z,98087.97
2022-11-04T03:23:15.474Z,98091.22
2022-11-04T03:25:45.510Z,98097.78
2022-11-04T03:28:26.438Z,98098.19
2022-11-04T03:30:55.867Z,98104.31
2022-11-04T03:33:26.744Z,98111.91
2022-11-04T03:35:53.178Z,98109.41
2022-11-04T03:38:22.028Z,98111.66
2022-11-04T03:40:48.863Z,98117.00
2022-11-04T03:43:22.254Z,98118.03
2022-11-04T03:45:49.387Z,98110.44
2022-11-04T03:48:15.825Z,98125.78
2022-11-04T03:50:44.138Z,98128.66
2022-11-04T03:53:13.507Z,98134.56
2022-11-04T03:55:49.376Z,98136.63
2022-11-04T03:58:40.688Z,98136.00
2022-11-04T04:01:39.247Z,98140.28
2022-11-04T04:04:17.060Z,98134.94
2022-11-04T04:06:45.218Z,98138.00
2022-11-04T04:09:23.524Z,98137.38
2022-11-04T04:11:57.694Z,98141.06
2022-11-04T04:14:31.164Z,98144.53
2022-11-04T04:17:00.362Z,98141.28
2022-11-04T04:19:27.968Z,98135.53
2022-11-04T04:22:01.829Z,98127.13
2022-11-04T04:24:39.925Z,98125.06
2022-11-04T04:27:06.458Z,98129.75
2022-11-04T04:29:33.251Z,98143.47
2022-11-04T04:32:01.235Z,98140.19
2022-11-04T04:34:30.083Z,98149.16
2022-11-04T04:37:11.627Z,98150.59
2022-11-04T04:39:56.258Z,98148.97
2022-11-04T04:42:23.251Z,98144.03
2022-11-04T04:44:49.804Z,98150.56
2022-11-04T04:47:24.371Z,98145.88
2022-11-04T04:49:52.393Z,98142.38
2022-11-04T04:52:20.110Z,98138.28
2022-11-04T04:54:46.509Z,98133.16
2022-11-04T04:57:12.929Z,98130.25
2022-11-04T04:59:39.249Z,98120.47
2022-11-04T05:02:05.908Z,98095.09
2022-11-04T05:04:32.487Z,98081.16
2022-11-04T05:06:59.008Z,98074.38
2022-11-04T05:09:25.359Z,98070.50
2022-11-04T05:11:51.927Z,98060.06
2022-11-04T05:14:18.590Z,98071.09
2022-11-04T05:16:45.577Z,98076.59
2022-11-04T05:19:12.192Z,98083.13
2022-11-04T05:21:38.593Z,98071.66
2022-11-04T05:24:05.284Z,98081.47
2022-11-04T05:26:31.810Z,98085.34
2022-11-04T05:28:58.158Z,98085.56
2022-11-04T05:31:24.508Z,98087.19
2022-11-04T05:33:50.885Z,98086.00
2022-11-04T05:36:17.542Z,98082.91
2022-11-04T05:38:44.275Z,98090.25
2022-11-04T05:41:12.284Z,98090.81
2022-11-04T05:43:38.975Z,98095.13
2022-11-04T05:46:05.944Z,98096.34
2022-11-04T05:48:36.386Z,98087.56
2022-11-04T05:51:06.562Z,98089.19
2022-11-04T05:53:32.967Z,98084.22
2022-11-04T05:55:59.633Z,98076.50
2022-11-04T05:58:26.300Z,98073.97
2022-11-04T06:00:52.688Z,98075.41
2022-11-04T06:03:19.529Z,98089.88
2022-11-04T06:05:45.931Z,98098.50
2022-11-04T06:08:12.457Z,98111.53
2022-11-04T06:10:38.996Z,98108.81
2022-11-04T06:13:05.406Z,98109.44
2022-11-04T06:15:32.020Z,98105.78
2022-11-04T06:17:58.639Z,98108.88
2022-11-04T06:20:25.263Z,98121.38
2022-11-04T06:22:51.728Z,98148.34
2022-11-04T06:25:18.287Z,98148.72
2022-11-04T06:27:44.598Z,98146.25
2022-11-04T06:30:11.739Z,98130.94
2022-11-04T06:32:38.223Z,98144.22
2022-11-04T06:35:05.053Z,98136.25
2022-11-04T06:37:31.419Z,98134.63
2022-11-04T06:39:57.969Z,98139.78
2022-11-04T06:42:24.628Z,98142.63
2022-11-04T06:44:51.252Z,98147.13
2022-11-04T06:47:22.177Z,98140.63
2022-11-04T06:49:51.219Z,98134.72
2022-11-04T06:52:17.569Z,98131.63
2022-11-04T06:54:43.974Z,98136.50
2022-11-04T06:57:11.428Z,98132.81
2022-11-04T06:59:37.845Z,98132.66
2022-11-04T07:02:04.311Z,98128.53
2022-11-04T07:04:30.772Z,98131.81
2022-11-04T07:06:57.254Z,98126.31
2022-11-04T07:09:23.584Z,98118.13
2022-11-04T07:11:49.999Z,98104.66
2022-11-04T07:14:16.401Z,98104.44
2022-11-04T07:16:43.267Z,98098.75
2022-11-04T07:19:09.769Z,98100.84
2022-11-04T07:21:36.218Z,98098.19
2022-11-04T07:24:02.990Z,98091.66
2022-11-04T07:26:29.515Z,98095.16
2022-11-04T07:28:55.920Z,98092.91
2022-11-04T07:31:22.400Z,98096.19
2022-11-04T07:33:48.774Z,98108.25
2022-11-04T07:36:15.477Z,98106.91
2022-11-04T07:38:41.850Z,98105.09
2022-11-04T07:41:08.405Z,98114.13
2022-11-04T07:43:34.815Z,98117.97
2022-11-04T07:46:10.354Z,98117.13
2022-11-04T07:48:37.546Z,98109.22
2022-11-04T07:51:06.309Z,98105.38
2022-11-04T07:53:32.749Z,98113.75
2022-11-04T07:55:59.173Z,98105.94
2022-11-04T07:58:25.856Z,98104.53
2022-11-04T08:01:00.906Z,98101.91
2022-11-04T08:03:27.449Z,98103.34
2022-11-04T08:05:58.941Z,98092.72
2022-11-04T08:08:26.114Z,98101.94
2022-11-04T08:11:00.890Z,98112.22
2022-11-04T08:13:28.558Z,98120.19
2022-11-04T08:15:55.384Z,98124.31
2022-11-04T08:18:21.787Z,98128.25
2022-11-04T08:20:49.950Z,98131.34
2022-11-04T08:23:19.847Z,98142.41
2022-11-04T08:25:47.229Z,98156.56
2022-11-04T08:28:13.794Z,98164.00
2022-11-04T08:30:40.297Z,98171.59
2022-11-04T08:33:07.327Z,98182.28
2022-11-04T08:35:40.728Z,98201.16
2022-11-04T08:38:07.538Z,98196.25
2022-11-04T08:40:36.683Z,98217.78
2022-11-04T08:43:03.260Z,98235.66
2022-11-04T08:45:33.492Z,98247.97
2022-11-04T08:48:04.313Z,98263.56
2022-11-04T08:50:32.020Z,98282.22
2022-11-04T08:52:58.338Z,98301.69
2022-11-04T08:55:24.807Z,98283.03
2022-11-04T08:57:51.147Z,98254.94
2022-11-04T09:00:17.821Z,97888.47
2022-11-04T09:02:44.249Z,97893.94
2022-11-04T09:05:10.790Z,97883.09
2022-11-04T09:07:37.512Z,97886.28
2022-11-04T09:10:05.564Z,97880.19
2022-11-04T09:12:32.207Z,97895.75
2022-11-04T09:14:58.645Z,97904.91
2022-11-04T09:17:25.088Z,97909.72
2022-11-04T09:19:51.411Z,97911.88
2022-11-04T09:22:17.825Z,97926.47
2022-11-04T09:24:44.429Z,97935.72
2022-11-04T09:27:10.796Z,97927.84
2022-11-04T09:29:37.214Z,97928.50
2022-11-04T09:32:04.153Z,97928.84
2022-11-04T09:34:30.760Z,97932.47
2022-11-04T09:36:57.795Z,97921.75
2022-11-04T09:39:25.031Z,97907.88
2022-11-04T09:42:06.221Z,97905.72
2022-11-04T09:45:19.379Z,97902.38
2022-11-04T09:47:37.536Z,97898.06
2022-11-04T09:50:08.544Z,97888.91
2022-11-04T09:52:43.597Z,97880.34
2022-11-04T09:55:29.413Z,97875.38
2022-11-04T09:57:57.910Z,97884.06
2022-11-04T10:00:25.578Z,97886.97
2022-11-04T10:03:13.619Z,97884.31
2022-11-04T10:05:57.122Z,97880.06
2022-11-04T10:08:47.201Z,97874.34
2022-11-04T10:11:32.194Z,97873.81
2022-11-04T10:14:23.263Z,97881.78
2022-11-04T10:17:07.651Z,97865.84
2022-11-04T10:19:48.232Z,97859.31
2022-11-04T10:22:31.118Z,97862.88
2022-11-04T10:25:22.361Z,97849.78
2022-11-04T10:27:51.137Z,97860.81
2022-11-04T10:30:23.091Z,97857.25
2022-11-04T10:32:56.419Z,97854.47
2022-11-04T10:35:31.619Z,97853.53
2022-11-04T10:38:13.188Z,97838.53
2022-11-04T10:40:40.633Z,97838.69
2022-11-04T10:43:12.791Z,97828.97
2022-11-04T10:46:09.725Z,97825.75
2022-11-04T10:48:57.182Z,97827.28
2022-11-04T10:51:23.735Z,97827.34
2022-11-04T10:53:58.702Z,97837.91
2022-11-04T10:56:56.433Z,97825.78
2022-11-04T10:59:48.503Z,97826.97
2022-11-04T11:02:15.064Z,97818.16
2022-11-04T11:04:42.142Z,97812.47
2022-11-04T11:07:09.897Z,97819.09
2022-11-04T11:09:53.830Z,97804.97
2022-11-04T11:15:31.006Z,97812.00
2022-11-04T11:18:02.305Z,97814.50
2022-11-04T11:20:28.685Z,97805.09
2022-11-04T11:22:55.905Z,97802.06
2022-11-04T11:25:28.525Z,97801.03
2022-11-04T11:28:04.034Z,97793.84
2022-11-04T11:30:38.001Z,97803.19
2022-11-04T11:33:14.209Z,97790.81
2022-11-04T11:35:47.853Z,97783.59
2022-11-04T11:38:18.508Z,97788.84
2022-11-04T11:41:10.505Z,97781.00
2022-11-04T11:43:35.129Z,97784.50
2022-11-04T11:46:02.429Z,97777.88
2022-11-04T11:48:29.667Z,97781.63
2022-11-04T11:50:57.359Z,97778.69
2022-11-04T11:53:23.799Z,97778.22
2022-11-04T11:55:59.229Z,97774.19
2022-11-04T12:01:46.629Z,97770.63
2022-11-04T12:10:24.090Z,97767.53
2022-11-04T12:13:24.750Z,97780.84
2022-11-04T12:16:20.658Z,97779.13
2022-11-04T12:19:08.224Z,97775.44
2022-11-04T12:21:55.595Z,97777.06
2022-11-04T12:24:40.452Z,97780.41
2022-11-04T12:27:24.762Z,97775.16
2022-11-04T12:30:03.211Z,97772.69
2022-11-04T12:32:47.831Z,97775.84
2022-11-04T12:35:32.418Z,97781.22
2022-11-04T12:38:40.382Z,97782.34
2022-11-04T12:41:37.997Z,97780.56
2022-11-04T12:44:26.056Z,97784.97
2022-11-04T12:47:17.331Z,97792.81
2022-11-04T12:49:54.910Z,97791.88
2022-11-04T12:52:48.897Z,97798.16
2022-11-04T12:55:21.054Z,97791.06
2022-11-04T12:58:06.256Z,97790.81
2022-11-04T13:00:38.902Z,97795.22
2022-11-04T13:03:18.941Z,97802.47
2022-11-04T13:06:05.577Z,97805.25
2022-11-04T13:08:40.311Z,97800.59
2022-11-04T13:11:22.282Z,97802.72
2022-11-04T13:13:51.351Z,97800.03
2022-11-04T13:16:18.114Z,97817.13
2022-11-04T13:18:45.445Z,97801.19
2022-11-04T13:21:16.146Z,97803.19
2022-11-04T13:24:02.713Z,97807.31
2022-11-04T13:26:29.073Z,97808.25
2022-11-04T13:29:17.174Z,97812.34
2022-11-04T13:32:04.318Z,97808.84
2022-11-04T13:34:49.747Z,97803.88
2022-11-04T13:37:31.954Z,97813.66
2022-11-04T13:40:07.093Z,97808.34
2022-11-04T13:42:45.631Z,97812.09
2022-11-04T13:45:15.401Z,97813.53
2022-11-04T13:47:52.595Z,97816.09
2022-11-04T13:50:32.924Z,97813.06
2022-11-04T13:52:59.861Z,97812.13
2022-11-04T13:55:26.253Z,97816.78
2022-11-04T13:57:56.251Z,97814.13
2022-11-04T14:00:28.429Z,97816.03
2022-11-04T14:03:18.500Z,97821.44
2022-11-04T14:06:00.787Z,97816.19
2022-11-04T14:08:27.834Z,97815.91
2022-11-04T14:10:54.155Z,97817.78
2022-11-04T14:13:32.850Z,97825.97
2022-11-04T14:16:02.085Z,97817.97
2022-11-04T14:18:33.207Z,97822.06
2022-11-04T14:21:07.376Z,97820.72
2022-11-04T14:23:36.082Z,97820.88
2022-11-04T14:26:08.931Z,97831.34
2022-11-04T14:28:36.236Z,97826.22
2022-11-04T14:31:14.040Z,97839.72
2022-11-04T14:33:49.178Z,97836.47
2022-11-04T14:36:52.020Z,97832.97
2022-11-04T14:39:24.743Z,97846.88
2022-11-04T14:42:02.095Z,97852.06
2022-11-04T14:44:36.925Z,97851.53
2022-11-04T14:47:13.642Z,97847.44
2022-11-04T14:49:44.997Z,97846.44
2022-11-04T14:52:21.955Z,97848.50
2022-11-04T14:54:49.767Z,97853.72
2022-11-04T14:57:22.505Z,97856.66
2022-11-04T14:59:49.140Z,97864.88
2022-11-04T15:02:22.813Z,97871.25
2022-11-04T15:04:55.010Z,97873.53
2022-11-04T15:07:31.990Z,97879.41
2022-11-04T15:09:58.805Z,97881.13
2022-11-04T15:12:25.490Z,97880.50
2022-11-04T15:14:51.823Z,97887.44
2022-11-04T15:17:20.830Z,97888.09
2022-11-04T15:19:56.447Z,97898.41
2022-11-04T15:22:24.000Z,97894.56
2022-11-04T15:24:50.848Z,97897.88
2022-11-04T15:27:20.234Z,97898.38
2022-11-04T15:29:54.203Z,97905.59
2022-11-04T15:32:20.588Z,97902.09
2022-11-04T15:34:47.742Z,97899.34
2022-11-04T15:37:14.398Z,97910.03
2022-11-04T15:39:44.441Z,97910.41
2022-11-04T15:42:20.853Z,97916.00
2022-11-04T15:44:51.640Z,97921.63
2022-11-04T15:47:17.959Z,97935.84
2022-11-04T15:49:45.365Z,97930.59
2022-11-04T15:52:20.204Z,97937.41
2022-11-04T15:54:49.465Z,97942.16
2022-11-04T15:57:23.900Z,97943.09
2022-11-04T16:00:01.969Z,97945.81
2022-11-04T16:02:34.004Z,97951.38
2022-11-04T16:05:12.568Z,97963.06
2022-11-04T16:07:50.477Z,97959.19
2022-11-04T16:10:30.978Z,97960.66
2022-11-04T16:13:16.793Z,97968.44
2022-11-04T16:15:46.063Z,97973.59
2022-11-04T16:18:23.459Z,97989.03
2022-11-04T16:20:52.186Z,97989.75
2022-11-04T16:23:23.333Z,97985.41
2022-11-04T16:26:02.818Z,97993.63
2022-11-04T16:28:31.354Z,97988.91
2022-11-04T16:31:00.287Z,97991.56
2022-11-04T16:33:26.746Z,98001.22
2022-11-04T16:35:53.211Z,98003.28
2022-11-04T16:38:19.807Z,97998.75
2022-11-04T16:40:48.222Z,97998.13
2022-11-04T16:43:19.801Z,98003.47
2022-11-04T16:45:53.527Z,98008.78
2022-11-04T16:48:20.833Z,98017.03
2022-11-04T16:50:47.940Z,98029.13
2022-11-04T16:53:14.567Z,98020.09
2022-11-04T16:55:42.999Z,98035.06
2022-11-04T16:58:18.896Z,98035.88
2022-11-04T17:00:45.593Z,98045.34
2022-11-04T17:03:19.089Z,98042.03
2022-11-04T17:05:45.519Z,98041.44
2022-11-04T17:08:15.115Z,98048.41
2022-11-04T17:10:41.572Z,98058.28
2022-11-04T17:13:08.503Z,98051.09
2022-11-04T17:15:35.066Z,98056.84
2022-11-04T17:18:01.628Z,98060.53
2022-11-04T17:20:28.671Z,98070.78
2022-11-04T17:22:55.417Z,98078.34
2022-11-04T17:25:24.625Z,98078.16
2022-11-04T17:27:51.163Z,98078.97
2022-11-04T17:30:18.863Z,98080.00
2022-11-04T17:32:46.830Z,98086.97
2022-11-04T17:35:14.287Z,98092.31
2022-11-04T17:37:41.475Z,98091.50
2022-11-04T17:40:11.272Z,98098.28
2022-11-04T17:42:37.817Z,98104.00
2022-11-04T17:45:04.610Z,98103.59
2022-11-04T17:47:35.554Z,98105.66
2022-11-04T17:50:02.488Z,98106.50
2022-11-04T17:52:29.178Z,98108.94
2022-11-04T17:54:55.769Z,98111.19
2022-11-04T17:57:22.184Z,98115.47
2022-11-04T17:59:48.540Z,98107.09
2022-11-04T18:02:15.112Z,98121.63
2022-11-04T18:04:41.656Z,98112.22
2022-11-04T18:07:08.031Z,98120.22
2022-11-04T18:09:34.450Z,98125.75
2022-11-04T18:12:01.114Z,98123.47
2022-11-04T18:14:27.800Z,98120.41
2022-11-04T18:16:54.299Z,98123.28
2022-11-04T18:19:23.139Z,98120.63
2022-11-04T18:21:50.059Z,98138.25
2022-11-04T18:24:17.542Z,98132.28
2022-11-04T18:26:44.028Z,98146.03
2022-11-04T18:29:10.881Z,98148.09
2022-11-04T18:31:43.367Z,98146.25
2022-11-04T18:34:15.419Z,98148.28
2022-11-04T18:36:42.169Z,98158.94
2022-11-04T18:39:11.919Z,98163.69
2022-11-04T18:41:39.101Z,98165.31
2022-11-04T18:44:11.710Z,98177.81
2022-11-04T18:46:38.227Z,98170.41
2022-11-04T18:49:04.775Z,98172.88
2022-11-04T18:51:31.536Z,98174.09
2022-11-04T18:53:58.177Z,98181.06
2022-11-04T18:56:24.766Z,98176.13
2022-11-04T18:58:51.364Z,98179.84
2022-11-04T19:01:33.007Z,98186.38
2022-11-04T19:04:00.578Z,98191.53
2022-11-04T19:06:33.457Z,98204.63
2022-11-04T19:09:25.266Z,98201.97
2022-11-04T19:11:53.530Z,98211.41
2022-11-04T19:14:20.079Z,98212.00
2022-11-04T19:16:46.625Z,98208.91
2022-11-04T19:19:14.909Z,98213.00
2022-11-04T19:21:41.353Z,98220.34
2022-11-04T19:24:07.875Z,98217.09
2022-11-04T19:26:35.481Z,98232.22
2022-11-04T19:29:05.389Z,98228.31
2022-11-04T19:31:32.603Z,98235.28
2022-11-04T19:34:00.904Z,98240.22
2022-11-04T19:36:27.401Z,98233.88
2022-11-04T19:38:55.110Z,98237.53
2022-11-04T19:41:22.692Z,98245.34
2022-11-04T19:43:49.157Z,98250.69
2022-11-04T19:46:15.629Z,98256.81
2022-11-04T19:48:42.195Z,98259.47
2022-11-04T19:51:12.388Z,98262.97
2022-11-04T19:53:38.808Z,98267.28
2022-11-04T19:56:05.787Z,98268.69
2022-11-04T19:58:32.481Z,98276.69
2022-11-04T20:01:06.572Z,98279.13
2022-11-04T20:03:33.056Z,98279.53
2022-11-04T20:05:59.500Z,98285.66
2022-11-04T20:08:25.969Z,98294.03
2022-11-04T20:10:52.393Z,98289.09
2022-11-04T20:13:19.930Z,98292.75
2022-11-04T20:15:46.550Z,98298.66
2022-11-04T20:18:13.281Z,98308.22
2022-11-04T20:20:40.047Z,98318.50
2022-11-04T20:23:06.670Z,98320.09
2022-11-04T20:25:33.227Z,98326.22
2022-11-04T20:28:01.770Z,98332.78
2022-11-04T20:30:28.207Z,98334.00
2022-11-04T20:32:54.807Z,98335.84
2022-11-04T20:35:21.339Z,98332.72
2022-11-04T20:37:47.755Z,98346.41
2022-11-04T20:40:14.294Z,98343.19
2022-11-04T20:42:41.281Z,98344.22
2022-11-04T20:45:07.775Z,98349.91
2022-11-04T20:47:34.175Z,98351.13
2022-11-04T20:50:00.726Z,98353.41
2022-11-04T20:52:27.470Z,98365.28
2022-11-04T20:54:53.795Z,98358.13
2022-11-04T20:57:20.355Z,98360.75
2022-11-04T20:59:47.000Z,98360.94
2022-11-04T21:02:13.628Z,98365.03
2022-11-04T21:04:40.169Z,98369.31
2022-11-04T21:07:06.569Z,98369.50
2022-11-04T21:09:32.911Z,98372.38
2022-11-04T21:11:59.532Z,98367.84
2022-11-04T21:14:26.193Z,98370.66
2022-11-04T21:16:52.595Z,98379.44
2022-11-04T21:19:18.993Z,98376.41
2022-11-04T21:21:45.666Z,98379.69
2022-11-04T21:24:14.331Z,98384.22
2022-11-04T21:26:41.257Z,98384.38
2022-11-04T21:29:10.700Z,98392.38
2022-11-04T21:31:37.737Z,98393.38
2022-11-04T21:34:05.136Z,98394.47
2022-11-04T21:36:32.412Z,98394.09
2022-11-04T21:38:59.456Z,98402.25
2022-11-04T21:41:28.294Z,98401.69
2022-11-04T21:43:56.446Z,98405.53
2022-11-04T21:46:23.440Z,98407.19
2022-11-04T21:48:49.971Z,98404.09
2022-11-04T21:51:19.184Z,98398.75
2022-11-04T21:53:45.782Z,98402.63
2022-11-04T21:56:15.236Z,98406.50
2022-11-04T21:58:44.781Z,98413.44
2022-11-04T22:01:19.372Z,98415.25
2022-11-04T22:03:50.755Z,98409.03
2022-11-04T22:06:17.487Z,98410.88
2022-11-04T22:08:47.109Z,98413.75
2022-11-04T22:11:22.916Z,98414.94
2022-11-04T22:13:59.996Z,98417.16
2022-11-04T22:16:29.205Z,98413.88
2022-11-04T22:18:57.671Z,98778.41
2022-11-04T22:21:25.724Z,98777.59
2022-11-04T22:23:53.482Z,98773.47
2022-11-04T22:26:26.871Z,98777.22
2022-11-04T22:28:54.127Z,98781.00
2022-11-04T22:31:24.326Z,98778.06
2022-11-04T22:33:51.839Z,98793.84
2022-11-04T22:36:19.230Z,98786.88
2022-11-04T22:38:46.036Z,98797.69
2022-11-04T22:41:17.011Z,98790.91
2022-11-04T22:43:43.364Z,98795.03
2022-11-04T22:46:16.105Z,98801.38
2022-11-04T22:48:42.872Z,98803.00
2022-11-04T22:51:10.265Z,98809.16
2022-11-04T22:53:37.551Z,98779.28
2022-11-04T22:56:05.633Z,98776.06
2022-11-04T22:58:32.914Z,98776.50
2022-11-04T23:01:02.988Z,98769.84
2022-11-04T23:03:29.738Z,98775.97
2022-11-04T23:05:59.402Z,98771.66
2022-11-04T23:08:28.158Z,98775.16
2022-11-04T23:11:00.578Z,98771.66
2022-11-04T23:13:27.009Z,98770.47
2022-11-04T23:15:53.578Z,98776.59
2022-11-04T23:18:20.245Z,98778.91
2022-11-04T23:20:46.575Z,98777.47
2022-11-04T23:23:13.110Z,98778.28
2022-11-04T23:25:40.015Z,98783.25
2022-11-04T23:28:06.481Z,98779.00
2022-11-04T23:30:36.068Z,98791.31
2022-11-04T23:33:07.846Z,98787.84
2022-11-04T23:35:37.393Z,98787.84
2022-11-04T23:38:04.379Z,98802.31
2022-11-04T23:40:32.149Z,98807.81
2022-11-04T23:42:58.786Z,98807.34
2022-11-04T23:45:25.298Z,98811.69
2022-11-04T23:47:55.527Z,98816.81
2022-11-04T23:50:22.692Z,98821.47
2022-11-04T23:52:49.018Z,98814.34
2022-11-04T23:55:15.438Z,98808.19
2022-11-04T23:57:41.758Z,98815.16
